Time;durP1;ratioP1;P1;durP2;ratioP2;P2;SDS_P1;SDS_P2;PMS_P1;PMS_P2;Temp;Humidity;BMP_temperature;BMP_pressure;BME280_temperature;BME280_humidity;BME280_pressure;Samples;Min_cycle;Max_cycle;Signal;HPM_P1;HPM_P2
2022/11/11 00:00:04;;;;;;;9.50;5.88;;;;;;;6.97;79.34;100960.66;341592;29;889;-84
2022/11/11 00:00:16;;;;;;;8.68;5.50;;;;;;;6.95;79.34;100957.22;339018;29;1263;-84
2022/11/11 00:00:28;;;;;;;9.10;5.30;;;;;;;6.95;79.72;100958.06;341589;29;877;-84
2022/11/11 00:00:40;;;;;;;10.02;5.75;;;;;;;6.96;79.54;100958.94;341227;29;1109;-84
2022/11/11 00:01:00;;;;;;;9.13;5.78;;;;;;;6.97;79.03;100963.25;341621;29;1039;-84
2022/11/11 00:01:15;;;;;;;7.88;5.55;;;;;;;6.97;79.36;100961.53;341278;29;1858;-84
2022/11/11 00:01:27;;;;;;;8.63;5.63;;;;;;;6.98;79.52;100958.09;340509;29;972;-84
2022/11/11 00:01:39;;;;;;;9.90;5.82;;;;;;;7.02;79.38;100968.44;340154;29;1037;-84
2022/11/11 00:01:51;;;;;;;9.52;5.70;;;;;;;7.00;79.53;100960.66;340218;29;1076;-85
2022/11/11 00:02:03;;;;;;;10.50;5.45;;;;;;;7.02;79.45;100958.94;340639;29;1031;-84
2022/11/11 00:02:15;;;;;;;9.57;5.13;;;;;;;7.04;79.36;100961.53;340664;28;1208;-84
2022/11/11 00:02:27;;;;;;;8.50;5.22;;;;;;;7.08;79.40;100971.88;340123;29;966;-84
2022/11/11 00:02:39;;;;;;;9.05;5.43;;;;;;;7.08;79.45;100961.53;339380;29;748;-84
2022/11/11 00:02:54;;;;;;;9.35;5.70;;;;;;;7.08;79.64;100958.97;339487;29;823;-84
2022/11/11 00:03:06;;;;;;;10.43;5.95;;;;;;;7.08;79.47;100964.13;340693;29;1903;-83
2022/11/11 00:03:18;;;;;;;9.95;5.75;;;;;;;7.09;79.55;100965.88;341728;29;1035;-83
2022/11/11 00:03:36;;;;;;;7.72;5.10;;;;;;;7.12;79.70;100965.91;341454;29;1166;-83
2022/11/11 00:03:48;;;;;;;7.80;5.28;;;;;;;7.14;79.87;100964.19;341600;29;1124;-83
2022/11/11 00:04:00;;;;;;;9.23;5.82;;;;;;;7.12;79.98;100960.72;343094;28;1260;-84
2022/11/11 00:04:12;;;;;;;10.23;6.10;;;;;;;7.12;80.02;100965.91;341726;29;1099;-83
2022/11/11 00:04:24;;;;;;;10.43;6.03;;;;;;;7.11;80.16;100960.72;340012;29;1055;-84
2022/11/11 00:04:36;;;;;;;8.90;5.95;;;;;;;7.12;80.24;100958.13;340465;29;1055;-84
2022/11/11 00:04:48;;;;;;;8.32;5.75;;;;;;;7.14;80.10;100964.19;340198;29;1441;-84
2022/11/11 00:04:59;;;;;;;8.10;5.53;;;;;;;7.12;80.33;100955.56;342002;29;1233;-83
2022/11/11 00:05:11;;;;;;;8.95;5.50;;;;;;;7.12;80.38;100960.72;339778;29;1780;-84
2022/11/11 00:05:24;;;;;;;9.18;5.63;;;;;;;7.07;80.29;100961.56;339219;29;1249;-83
2022/11/11 00:05:36;;;;;;;9.55;6.03;;;;;;;7.05;80.55;100958.97;335153;29;1199;-83
2022/11/11 00:05:48;;;;;;;10.77;6.38;;;;;;;7.07;80.26;100957.25;335347;29;982;-83
2022/11/11 00:06:05;;;;;;;10.63;6.43;;;;;;;7.08;80.50;100956.38;336641;29;741;-83
2022/11/11 00:06:17;;;;;;;11.30;6.30;;;;;;;7.08;80.73;100960.69;338863;29;1051;-84
2022/11/11 00:06:29;;;;;;;10.98;6.30;;;;;;;7.07;80.46;100961.56;338517;29;1632;-83
2022/11/11 00:06:41;;;;;;;12.60;6.22;;;;;;;7.08;80.06;100958.97;339116;29;1174;-83
2022/11/11 00:06:53;;;;;;;12.20;6.00;;;;;;;7.08;80.39;100958.97;339089;29;1036;-83
2022/11/11 00:07:05;;;;;;;11.05;5.72;;;;;;;7.07;79.94;100961.56;339397;29;1905;-84
2022/11/11 00:07:17;;;;;;;9.73;5.80;;;;;;;7.07;79.99;100956.41;340619;29;1149;-83
2022/11/11 00:07:29;;;;;;;11.32;5.90;;;;;;;7.06;80.03;100957.25;341069;29;758;-84
2022/11/11 00:07:42;;;;;;;10.57;5.88;;;;;;;7.09;80.11;100957.25;341316;29;1237;-83
2022/11/11 00:07:58;;;;;;;9.18;5.63;;;;;;;7.10;80.09;100956.38;341797;28;1234;-83
2022/11/11 00:08:10;;;;;;;8.63;5.53;;;;;;;7.10;80.34;100954.69;338484;29;1887;-83
2022/11/11 00:08:22;;;;;;;8.02;5.65;;;;;;;7.09;80.30;100960.69;340350;29;1116;-83
2022/11/11 00:08:34;;;;;;;8.98;5.90;;;;;;;7.09;79.97;100950.34;340299;28;1103;-83
2022/11/11 00:08:47;;;;;;;11.65;6.20;;;;;;;7.09;80.10;100960.69;340750;29;1286;-84
2022/11/11 00:08:59;;;;;;;13.30;6.22;;;;;;;7.09;80.26;100950.34;339491;29;1001;-84
2022/11/11 00:09:11;;;;;;;11.63;6.22;;;;;;;7.10;79.88;100957.28;337744;29;1800;-83
2022/11/11 00:09:23;;;;;;;9.52;5.90;;;;;;;7.10;79.94;100952.09;339864;29;1091;-83
2022/11/11 00:09:35;;;;;;;8.43;5.70;;;;;;;7.08;80.25;100958.97;341356;29;751;-83
2022/11/11 00:09:47;;;;;;;8.15;5.72;;;;;;;7.08;80.05;100956.38;340444;29;1021;-84
2022/11/11 00:09:59;;;;;;;10.05;5.97;;;;;;;7.07;80.17;100954.66;339796;29;1097;-83
2022/11/11 00:10:11;;;;;;;10.40;6.10;;;;;;;7.07;80.63;100952.06;340695;29;1431;-83
2022/11/11 00:10:23;;;;;;;9.05;6.00;;;;;;;7.08;80.67;100953.78;340966;29;1209;-83
2022/11/11 00:10:35;;;;;;;8.75;5.90;;;;;;;7.06;80.39;100955.50;337908;29;2530;-83
2022/11/11 00:10:47;;;;;;;9.32;5.97;;;;;;;7.07;80.00;100948.63;337678;29;1220;-83
2022/11/11 00:11:03;;;;;;;9.07;5.82;;;;;;;7.05;80.45;100953.78;335984;29;1994;-83
2022/11/11 00:11:16;;;;;;;10.35;5.93;;;;;;;7.05;80.62;100951.22;338822;29;1790;-84
2022/11/11 00:11:28;;;;;;;10.00;5.97;;;;;;;7.04;80.18;100952.06;339200;29;740;-83
2022/11/11 00:11:40;;;;;;;8.90;5.90;;;;;;;7.02;80.02;100951.19;338429;29;1500;-84
2022/11/11 00:11:52;;;;;;;8.82;5.80;;;;;;;7.03;80.46;100952.06;338764;29;744;-84
2022/11/11 00:12:04;;;;;;;8.45;5.85;;;;;;;7.03;80.39;100960.69;338757;29;1650;-84
2022/11/11 00:12:16;;;;;;;7.63;5.68;;;;;;;7.05;80.05;100958.97;340025;29;1084;-84
2022/11/11 00:12:30;;;;;;;8.68;5.72;;;;;;;7.04;80.23;100954.63;339895;29;1096;-84
2022/11/11 00:12:41;;;;;;;8.82;5.88;;;;;;;7.05;80.15;100952.94;340067;29;754;-84
2022/11/11 00:12:57;;;;;;;9.75;5.63;;;;;;;7.06;80.21;100954.66;339029;29;1563;-84
2022/11/11 00:13:09;;;;;;;9.50;5.30;;;;;;;7.04;80.36;100954.63;339958;29;1885;-84
2022/11/11 00:13:21;;;;;;;9.20;5.40;;;;;;;7.04;80.20;100952.06;339368;29;1491;-84
2022/11/11 00:13:35;;;;;;;9.70;5.80;;;;;;;7.07;79.97;100952.06;337555;29;935;-84
2022/11/11 00:13:46;;;;;;;9.90;6.20;;;;;;;7.08;80.37;100955.53;337326;29;1044;-83
2022/11/11 00:13:58;;;;;;;9.30;6.38;;;;;;;7.08;80.30;100948.63;337887;29;769;-83
2022/11/11 00:14:10;;;;;;;10.35;6.43;;;;;;;7.12;80.24;100952.09;337736;29;1715;-84
2022/11/11 00:14:22;;;;;;;11.63;6.80;;;;;;;7.13;80.09;100962.44;336052;29;1285;-83
2022/11/11 00:14:34;;;;;;;10.82;6.57;;;;;;;7.10;80.19;100956.38;338595;29;1073;-83
2022/11/11 00:14:46;;;;;;;10.73;6.47;;;;;;;7.09;80.41;100952.94;338679;29;1252;-84
2022/11/11 00:14:58;;;;;;;10.70;6.22;;;;;;;7.11;80.52;100951.22;340211;29;1233;-83
2022/11/11 00:15:10;;;;;;;10.00;6.05;;;;;;;7.10;80.10;100954.69;337655;29;1595;-84
2022/11/11 00:15:22;;;;;;;8.93;5.90;;;;;;;7.07;80.04;100952.06;338285;29;1518;-84
2022/11/11 00:15:40;;;;;;;8.82;5.82;;;;;;;7.06;79.94;100955.50;339412;29;1132;-83
2022/11/11 00:15:52;;;;;;;8.52;5.72;;;;;;;7.08;80.33;100958.97;340246;29;967;-84
2022/11/11 00:16:16;;;;;;;9.07;5.90;;;;;;;7.07;79.93;100959.84;339781;29;1703;-83
2022/11/11 00:25:04;;;;;;;9.30;6.20;;;;;;;7.06;79.80;100955.50;341655;29;1068;-84
2022/11/11 00:25:06;;;;;;;10.07;6.10;;;;;;;7.10;80.75;100971.91;341488;29;1250;-84
2022/11/11 00:25:19;;;;;;;9.10;6.03;;;;;;;7.09;80.53;100968.47;341491;28;1609;-83
2022/11/11 00:25:31;;;;;;;9.95;6.32;;;;;;;7.07;80.84;100964.16;342843;28;1064;-84
2022/11/11 00:25:43;;;;;;;9.95;6.53;;;;;;;7.04;80.95;100972.75;341092;29;1098;-83
2022/11/11 00:25:56;;;;;;;10.15;6.35;;;;;;;7.06;80.75;100975.34;341412;29;1032;-84
2022/11/11 00:26:28;;;;;;;9.90;6.10;;;;;;;7.03;81.08;100967.59;341141;28;1664;-83
2022/11/11 00:26:55;;;;;;;10.55;6.68;;;;;;;7.00;81.25;100971.88;340286;29;1178;-84
2022/11/11 00:27:09;;;;;;;10.35;6.47;;;;;;;7.00;80.83;100971.00;340015;29;1959;-84
2022/11/11 00:27:21;;;;;;;10.70;6.30;;;;;;;7.03;80.89;100976.19;340297;29;1456;-83
2022/11/11 00:27:33;;;;;;;10.90;6.22;;;;;;;7.00;80.88;100966.72;337756;29;741;-83
2022/11/11 00:27:45;;;;;;;11.90;6.60;;;;;;;7.01;81.32;100972.75;338766;29;763;-84
2022/11/11 00:27:57;;;;;;;11.68;6.82;;;;;;;6.99;81.57;100974.47;340339;29;1806;-83
2022/11/11 00:28:09;;;;;;;10.80;6.47;;;;;;;6.95;81.43;100972.72;341641;29;1876;-84
2022/11/11 00:28:21;;;;;;;11.43;6.28;;;;;;;6.95;81.36;100973.59;341502;28;1180;-84
2022/11/11 00:28:34;;;;;;;12.05;6.57;;;;;;;6.95;81.03;100978.75;341581;29;1211;-83
2022/11/11 00:28:46;;;;;;;13.90;7.03;;;;;;;6.96;81.23;100974.44;342006;28;1651;-84
2022/11/11 00:28:58;;;;;;;12.20;6.88;;;;;;;6.95;81.57;100977.91;341907;28;1045;-83
2022/11/11 00:29:10;;;;;;;11.10;6.55;;;;;;;6.97;81.11;100973.59;340272;28;1595;-84
2022/11/11 00:29:22;;;;;;;11.65;6.38;;;;;;;6.98;81.29;100971.03;341216;28;1133;-83
2022/11/11 00:29:34;;;;;;;11.60;6.07;;;;;;;7.02;81.34;100971.88;340553;29;751;-83
2022/11/11 00:29:46;;;;;;;11.15;5.85;;;;;;;6.99;81.20;100974.47;340213;29;1647;-83
2022/11/11 00:29:58;;;;;;;10.95;6.18;;;;;;;6.98;80.96;100973.59;337931;29;1254;-83
2022/11/11 00:30:10;;;;;;;10.50;6.20;;;;;;;7.02;81.01;100978.78;338741;29;1518;-84
2022/11/11 00:30:22;;;;;;;9.63;6.30;;;;;;;7.03;81.20;100976.19;341680;28;1740;-83
2022/11/11 00:30:34;;;;;;;10.23;6.32;;;;;;;7.05;81.21;100969.31;342872;28;852;-83
2022/11/11 00:30:46;;;;;;;10.98;6.35;;;;;;;7.06;81.35;100971.03;343197;28;715;-84
2022/11/11 00:31:06;;;;;;;10.85;6.20;;;;;;;7.07;81.41;100977.94;342954;28;749;-83
2022/11/11 00:31:17;;;;;;;11.23;6.78;;;;;;;7.09;81.15;100976.22;341418;28;1144;-84
2022/11/11 00:31:29;;;;;;;10.75;6.70;;;;;;;7.11;80.77;100969.31;341526;29;799;-84
2022/11/11 00:32:23;;;;;;;10.43;6.40;;;;;;;7.12;81.04;100973.66;340122;29;1287;-84
2022/11/11 00:32:30;;;;;;;9.85;6.70;;;;;;;7.13;80.88;100969.34;341469;29;828;-83
2022/11/11 00:32:35;;;;;;;8.95;6.32;;;;;;;7.08;80.68;100979.66;341544;28;1156;-84
2022/11/11 00:32:47;;;;;;;10.32;6.50;;;;;;;7.08;80.95;100969.31;341898;28;1159;-83
2022/11/11 00:32:59;;;;;;;10.63;6.43;;;;;;;7.09;80.84;100976.22;343017;28;754;-84
2022/11/11 00:33:11;;;;;;;9.52;6.20;;;;;;;7.09;81.19;100971.03;341001;28;1472;-84
2022/11/11 00:33:23;;;;;;;9.65;6.10;;;;;;;7.10;81.08;100966.72;340350;29;2075;-85
2022/11/11 00:33:35;;;;;;;9.95;6.28;;;;;;;7.11;81.09;100969.31;339997;29;1209;-84
2022/11/11 00:33:47;;;;;;;9.18;6.20;;;;;;;7.13;80.93;100977.09;340303;29;1069;-84
2022/11/11 00:33:59;;;;;;;8.70;6.20;;;;;;;7.16;81.12;100972.81;341683;29;746;-83
2022/11/11 00:34:11;;;;;;;9.35;6.15;;;;;;;7.16;81.11;100972.81;341425;29;1877;-83
2022/11/11 00:34:23;;;;;;;10.13;6.20;;;;;;;7.17;81.26;100974.50;340794;28;1437;-83
2022/11/11 00:34:35;;;;;;;11.07;6.53;;;;;;;7.12;81.48;100971.06;341926;28;1055;-84
2022/11/11 00:35:54;;;;;;;10.18;6.55;;;;;;;7.14;81.29;100974.53;343007;28;1415;-84
2022/11/11 00:36:06;;;;;;;10.55;6.40;;;;;;;7.16;81.13;100977.97;341219;29;1076;-84
2022/11/11 00:36:18;;;;;;;10.50;6.32;;;;;;;7.18;81.33;100980.53;339565;28;1892;-83
2022/11/11 00:36:30;;;;;;;10.23;6.40;;;;;;;7.18;81.41;100981.44;339330;29;1063;-83
2022/11/11 00:36:42;;;;;;;11.90;6.55;;;;;;;7.18;81.21;100981.44;340066;29;1177;-84
2022/11/11 00:36:55;;;;;;;14.20;6.55;;;;;;;7.18;81.48;100976.25;341669;29;998;-83
2022/11/11 00:37:07;;;;;;;13.13;6.53;;;;;;;7.20;81.04;100973.66;341505;28;1639;-84
2022/11/11 00:37:19;;;;;;;9.57;6.43;;;;;;;7.19;81.16;100977.97;341367;29;1062;-84
2022/11/11 00:37:32;;;;;;;9.63;6.40;;;;;;;7.19;81.55;100980.56;341877;28;1119;-84
2022/11/11 00:37:47;;;;;;;10.13;6.47;;;;;;;7.20;81.29;100979.72;341640;29;1012;-83
2022/11/11 00:38:07;;;;;;;10.30;6.40;;;;;;;7.23;81.00;100983.16;343024;28;1066;-84
2022/11/11 00:38:51;;;;;;;10.32;6.60;;;;;;;7.25;80.63;100984.03;339891;29;1914;-83
2022/11/11 00:39:03;;;;;;;11.73;6.63;;;;;;;7.27;80.61;100984.88;341362;28;1649;-83
2022/11/11 00:39:15;;;;;;;10.90;6.65;;;;;;;7.27;80.81;100979.72;340977;29;739;-83
2022/11/11 00:39:27;;;;;;;10.05;6.10;;;;;;;7.28;80.78;100981.44;340953;29;1074;-84
2022/11/11 00:39:40;;;;;;;8.77;5.85;;;;;;;7.25;81.16;100982.28;341611;29;1243;-84
2022/11/11 00:39:51;;;;;;;10.38;6.35;;;;;;;7.25;80.67;100981.44;341772;29;1222;-84
2022/11/11 00:40:04;;;;;;;12.57;6.75;;;;;;;7.20;80.80;100984.88;340126;29;1666;-84
2022/11/11 00:40:16;;;;;;;12.55;6.70;;;;;;;7.20;81.37;100984.88;340524;29;1707;-84
2022/11/11 00:40:28;;;;;;;12.27;6.50;;;;;;;7.20;81.23;100984.88;340773;29;739;-85
2022/11/11 00:40:40;;;;;;;10.88;6.57;;;;;;;7.22;81.13;100977.09;338812;29;980;-84
2022/11/11 00:40:52;;;;;;;11.73;6.60;;;;;;;7.24;80.89;100987.47;337642;29;740;-84
2022/11/11 00:41:04;;;;;;;10.85;6.63;;;;;;;7.25;81.00;100987.47;338598;29;1570;-85
2022/11/11 00:41:19;;;;;;;9.88;6.40;;;;;;;7.28;80.94;100984.00;338724;29;1732;-84
2022/11/11 00:41:31;;;;;;;9.55;6.28;;;;;;;7.29;81.07;100984.03;338701;29;1051;-83
2022/11/11 00:41:43;;;;;;;9.52;6.22;;;;;;;7.27;81.10;100980.56;338326;29;1770;-83
2022/11/11 00:41:55;;;;;;;10.88;6.32;;;;;;;7.25;81.37;100984.03;339180;29;1290;-84
2022/11/11 00:42:07;;;;;;;10.65;6.32;;;;;;;7.26;81.37;100986.59;338990;29;1700;-84
2022/11/11 00:42:18;;;;;;;10.68;6.30;;;;;;;7.27;81.39;100984.88;340105;29;1106;-84
2022/11/11 00:42:31;;;;;;;9.63;6.72;;;;;;;7.28;81.34;100986.59;340718;29;1659;-84
2022/11/11 00:42:43;;;;;;;9.07;6.72;;;;;;;7.29;81.66;100985.75;339996;29;1613;-85
2022/11/11 00:42:55;;;;;;;8.88;6.60;;;;;;;7.28;81.44;100986.59;339088;29;1136;-84
2022/11/11 00:43:07;;;;;;;10.65;6.80;;;;;;;7.26;81.68;100985.75;340278;29;1573;-84
2022/11/11 00:43:19;;;;;;;11.30;6.88;;;;;;;7.26;81.65;100984.00;341003;28;1152;-84
2022/11/11 00:43:31;;;;;;;12.85;6.90;;;;;;;7.26;81.79;100983.16;341418;29;1107;-84
2022/11/11 00:43:45;;;;;;;12.18;6.80;;;;;;;7.29;81.41;100983.19;339485;29;1997;-84
2022/11/11 00:43:57;;;;;;;11.52;6.55;;;;;;;7.31;81.46;100982.31;340275;29;996;-84
2022/11/11 00:44:09;;;;;;;10.35;6.32;;;;;;;7.34;81.31;100984.88;341188;28;1719;-84
2022/11/11 00:44:21;;;;;;;10.73;6.57;;;;;;;7.34;81.26;100979.72;341447;28;1791;-84
2022/11/11 00:44:33;;;;;;;9.60;6.22;;;;;;;7.36;81.61;100990.06;342203;28;750;-85
2022/11/11 00:44:45;;;;;;;8.90;6.18;;;;;;;7.37;81.39;100986.63;342160;28;1326;-84
2022/11/11 00:44:57;;;;;;;9.43;6.13;;;;;;;7.36;81.37;100984.91;341486;28;967;-84
2022/11/11 00:45:10;;;;;;;9.80;6.40;;;;;;;7.38;81.17;100983.16;340116;28;1514;-84
2022/11/11 00:45:22;;;;;;;9.77;6.38;;;;;;;7.38;81.41;100983.16;339989;29;1137;-83
2022/11/11 00:45:34;;;;;;;10.63;6.45;;;;;;;7.40;81.31;100986.63;338251;29;1119;-83
2022/11/11 00:45:46;;;;;;;11.43;6.75;;;;;;;7.37;81.59;100981.47;337491;29;906;-84
2022/11/11 00:51:06;;;;;;;11.18;6.90;;;;;;;7.43;81.86;100981.47;341439;28;1535;-83
2022/11/11 00:51:18;;;;;;;9.70;6.82;;;;;;;7.45;81.52;100978.91;341463;28;1892;-84
2022/11/11 00:51:30;;;;;;;8.45;6.45;;;;;;;7.45;81.91;100982.34;342530;28;1141;-83
2022/11/11 00:51:42;;;;;;;9.68;6.70;;;;;;;7.43;81.40;100981.47;342836;28;741;-84
2022/11/11 00:51:54;;;;;;;10.32;6.95;;;;;;;7.45;81.51;100976.31;341485;28;1145;-83
2022/11/11 00:52:06;;;;;;;10.52;7.00;;;;;;;7.43;81.67;100976.28;341380;28;1744;-84
2022/11/11 00:52:18;;;;;;;10.05;7.00;;;;;;;7.44;81.69;100982.31;340000;29;1746;-83
2022/11/11 00:52:30;;;;;;;10.05;7.10;;;;;;;7.45;81.28;100981.47;339496;29;1176;-83
2022/11/11 00:52:45;;;;;;;10.05;6.95;;;;;;;7.47;81.49;100985.78;340584;29;735;-84
2022/11/11 00:52:57;;;;;;;10.82;6.55;;;;;;;7.48;81.37;100979.72;340587;29;1014;-84
2022/11/11 00:53:23;;;;;;;11.52;6.60;;;;;;;7.45;81.05;100976.31;336640;29;2038;-83
2022/11/11 00:53:39;;;;;;;12.32;7.40;;;;;;;7.38;81.10;100983.16;337173;29;1006;-83
2022/11/11 00:53:51;;;;;;;10.98;7.20;;;;;;;7.37;81.02;100981.47;337978;29;1771;-83
2022/11/11 00:54:03;;;;;;;10.85;7.20;;;;;;;7.37;81.13;100971.13;339832;29;912;-83
2022/11/11 00:54:15;;;;;;;10.13;6.90;;;;;;;7.37;81.06;100973.69;341301;28;1742;-84
2022/11/11 00:54:27;;;;;;;11.00;7.07;;;;;;;7.40;80.87;100977.16;340348;28;1883;-84
2022/11/11 00:54:39;;;;;;;10.30;7.07;;;;;;;7.43;81.26;100981.47;338584;29;1784;-83
2022/11/11 00:54:51;;;;;;;10.25;7.32;;;;;;;7.42;81.03;100969.38;340079;28;1034;-84
2022/11/11 00:55:04;;;;;;;9.88;7.15;;;;;;;7.43;81.34;100978.88;340487;29;700;-84
2022/11/11 00:55:16;;;;;;;10.07;7.38;;;;;;;7.43;81.01;100981.47;340948;28;1692;-84
2022/11/11 00:55:28;;;;;;;11.05;7.55;;;;;;;7.41;80.88;100975.44;340722;29;888;-84
2022/11/11 00:55:41;;;;;;;12.45;7.55;;;;;;;7.42;80.76;100979.72;338345;29;1177;-83
2022/11/11 00:55:53;;;;;;;12.82;7.60;;;;;;;7.43;80.63;100975.44;338103;29;1004;-84
2022/11/11 00:56:05;;;;;;;11.60;7.25;;;;;;;7.42;80.57;100971.97;340534;29;1024;-83
2022/11/11 00:56:18;;;;;;;11.10;7.05;;;;;;;7.44;80.93;100972.84;340794;28;1627;-84
2022/11/11 00:56:30;;;;;;;10.32;7.05;;;;;;;7.46;81.02;100976.28;339052;29;1075;-83
2022/11/11 00:56:42;;;;;;;10.95;6.95;;;;;;;7.48;80.92;100974.56;339244;29;978;-83
2022/11/11 00:56:54;;;;;;;10.82;6.60;;;;;;;7.49;81.06;100971.13;339683;29;1612;-83
2022/11/11 00:57:06;;;;;;;10.43;6.53;;;;;;;7.52;80.61;100975.44;338395;29;1957;-83
2022/11/11 00:57:18;;;;;;;11.18;6.75;;;;;;;7.53;80.58;100972.84;338016;29;1208;-83
2022/11/11 00:57:31;;;;;;;10.25;6.53;;;;;;;7.54;80.85;100979.75;338356;29;1840;-84
2022/11/11 00:57:43;;;;;;;11.63;6.70;;;;;;;7.52;80.70;100971.13;340066;29;1055;-84
2022/11/11 00:57:55;;;;;;;12.68;6.93;;;;;;;7.51;80.71;100973.72;339969;29;885;-83
2022/11/11 00:58:07;;;;;;;12.02;7.25;;;;;;;7.49;80.72;100973.72;340437;29;758;-83
2022/11/11 00:58:19;;;;;;;10.75;7.35;;;;;;;7.49;80.85;100971.13;340234;29;1043;-84
2022/11/11 00:58:31;;;;;;;9.45;7.20;;;;;;;7.47;80.92;100970.25;340825;29;755;-85
2022/11/11 00:58:43;;;;;;;10.70;7.20;;;;;;;7.48;80.82;100982.31;339705;29;2170;-84
2022/11/11 00:58:55;;;;;;;11.48;7.00;;;;;;;7.43;81.01;100973.72;339899;29;765;-83
2022/11/11 00:59:07;;;;;;;12.55;6.90;;;;;;;7.42;80.85;100973.69;339760;29;1551;-85
2022/11/11 00:59:19;;;;;;;12.48;7.10;;;;;;;7.41;80.95;100980.59;339753;29;2020;-83
2022/11/11 00:59:31;;;;;;;11.88;6.93;;;;;;;7.39;80.86;100979.75;339836;29;1076;-84
2022/11/11 00:59:43;;;;;;;11.43;6.93;;;;;;;7.38;80.96;100972.81;340256;29;1061;-84
2022/11/11 00:59:55;;;;;;;9.75;6.70;;;;;;;7.32;80.68;100978.00;341409;28;1790;-84
2022/11/11 01:00:08;;;;;;;8.93;6.77;;;;;;;7.32;80.96;100972.81;342528;28;1950;-84
2022/11/11 01:00:20;;;;;;;9.70;6.90;;;;;;;7.33;81.31;100979.72;343302;28;1184;-83
2022/11/11 01:00:32;;;;;;;11.13;7.30;;;;;;;7.35;81.13;100978.00;344306;28;1309;-83
2022/11/11 01:00:44;;;;;;;11.30;7.40;;;;;;;7.34;81.07;100977.13;341808;28;1540;-84
2022/11/11 01:00:56;;;;;;;10.55;7.25;;;;;;;7.31;80.92;100982.31;343191;28;1175;-83
2022/11/11 01:01:08;;;;;;;10.48;7.00;;;;;;;7.30;80.87;100977.97;342058;28;2072;-83
2022/11/11 01:01:20;;;;;;;10.15;6.93;;;;;;;7.27;80.89;100970.22;342473;28;1107;-84
2022/11/11 01:01:34;;;;;;;9.93;6.88;;;;;;;7.27;80.75;100977.13;342928;28;889;-84
2022/11/11 01:01:46;;;;;;;10.60;6.80;;;;;;;7.31;80.76;100976.28;341848;28;1064;-84
2022/11/11 01:01:58;;;;;;;11.60;6.88;;;;;;;7.32;81.46;100978.00;341111;29;1228;-83
2022/11/11 01:02:10;;;;;;;11.13;6.90;;;;;;;7.27;81.13;100970.22;341539;28;1434;-83
2022/11/11 01:02:22;;;;;;;9.90;6.93;;;;;;;7.29;80.97;100975.41;340696;28;1201;-84
2022/11/11 01:02:34;;;;;;;9.55;6.95;;;;;;;7.30;81.06;100974.53;341307;28;1508;-84
2022/11/11 01:02:46;;;;;;;10.20;6.97;;;;;;;7.29;81.11;100978.00;340090;29;1226;-83
2022/11/11 01:02:58;;;;;;;12.02;6.80;;;;;;;7.29;81.36;100975.41;341688;29;754;-83
2022/11/11 01:03:10;;;;;;;13.77;7.10;;;;;;;7.31;80.91;100978.88;341753;29;1040;-84
2022/11/11 01:03:22;;;;;;;12.68;7.32;;;;;;;7.29;80.85;100972.81;341679;29;1134;-84
2022/11/11 01:03:34;;;;;;;13.35;7.50;;;;;;;7.28;80.99;100981.44;341644;29;1025;-83
2022/11/11 01:03:46;;;;;;;12.85;7.55;;;;;;;7.30;80.96;100984.88;341538;29;727;-83
2022/11/11 01:03:58;;;;;;;11.38;7.47;;;;;;;7.32;80.95;100978.00;341591;28;1077;-83
2022/11/11 01:04:10;;;;;;;9.52;6.97;;;;;;;7.34;81.13;100976.28;340560;28;1797;-83
2022/11/11 01:04:22;;;;;;;8.40;6.50;;;;;;;7.37;81.20;100976.28;339590;29;1314;-83
2022/11/11 01:04:34;;;;;;;8.38;6.22;;;;;;;7.39;81.13;100977.16;340088;29;1075;-83
2022/11/11 01:04:47;;;;;;;10.00;6.25;;;;;;;7.41;80.69;100978.03;338215;29;1296;-84
2022/11/11 01:04:58;;;;;;;10.25;6.00;;;;;;;7.42;80.92;100974.56;341319;29;1112;-83
2022/11/11 01:05:10;;;;;;;9.60;6.22;;;;;;;7.45;80.91;100974.56;340226;29;1097;-83
2022/11/11 01:05:22;;;;;;;10.63;6.20;;;;;;;7.45;80.54;100977.16;340308;29;1114;-83
2022/11/11 01:05:38;;;;;;;10.07;6.30;;;;;;;7.46;80.64;100981.47;341487;29;1115;-83
2022/11/11 01:05:50;;;;;;;9.30;6.40;;;;;;;7.48;80.93;100984.06;341595;28;817;-85
2022/11/11 01:06:03;;;;;;;9.43;6.32;;;;;;;7.48;80.57;100979.72;342990;28;1243;-83
2022/11/11 01:06:15;;;;;;;8.82;6.07;;;;;;;7.49;80.64;100976.31;342161;29;765;-83
2022/11/11 01:06:27;;;;;;;8.55;5.93;;;;;;;7.51;80.77;100977.16;340103;29;922;-83
2022/11/11 01:06:39;;;;;;;8.05;5.68;;;;;;;7.51;80.79;100979.75;340583;29;963;-83
2022/11/11 01:06:51;;;;;;;7.45;5.68;;;;;;;7.52;80.15;100973.69;340841;29;906;-83
2022/11/11 01:07:03;;;;;;;7.88;5.85;;;;;;;7.50;80.31;100978.00;340415;29;1666;-85
2022/11/11 01:07:15;;;;;;;8.50;5.80;;;;;;;7.51;80.21;100979.75;339098;29;1052;-84
2022/11/11 01:07:28;;;;;;;8.43;5.90;;;;;;;7.52;80.68;100980.59;339164;29;1132;-84
2022/11/11 01:07:40;;;;;;;8.57;5.95;;;;;;;7.50;80.59;100980.59;340935;29;1015;-84
2022/11/11 01:07:52;;;;;;;9.10;6.07;;;;;;;7.51;80.69;100979.75;340783;28;1970;-83
2022/11/11 01:08:04;;;;;;;9.65;6.25;;;;;;;7.52;81.01;100975.44;339017;29;980;-84
2022/11/11 01:08:16;;;;;;;10.23;6.40;;;;;;;7.52;80.98;100976.28;338343;29;1593;-83
2022/11/11 01:08:30;;;;;;;11.77;6.30;;;;;;;7.52;80.56;100976.28;339080;29;1966;-83
2022/11/11 01:08:42;;;;;;;11.80;6.20;;;;;;;7.53;80.49;100978.03;337531;29;1013;-83
2022/11/11 01:08:54;;;;;;;8.80;5.72;;;;;;;7.53;80.32;100985.78;339102;29;1224;-84
2022/11/11 01:09:07;;;;;;;8.00;5.55;;;;;;;7.52;80.63;100984.06;338492;29;1746;-84
2022/11/11 01:09:19;;;;;;;8.43;5.75;;;;;;;7.52;80.38;100986.63;337352;29;1776;-83
2022/11/11 01:09:31;;;;;;;8.60;5.65;;;;;;;7.51;80.81;100982.34;340355;29;1018;-83
2022/11/11 01:09:43;;;;;;;8.40;5.72;;;;;;;7.53;80.46;100983.22;341606;28;902;-83
2022/11/11 01:09:55;;;;;;;7.97;5.47;;;;;;;7.53;80.38;100978.03;340429;29;1449;-83
2022/11/11 01:10:07;;;;;;;7.75;5.47;;;;;;;7.49;80.51;100980.63;341480;29;1811;-84
2022/11/11 01:10:38;;;;;;;7.47;5.25;;;;;;;7.47;80.74;100983.19;341214;29;945;-83
2022/11/11 01:10:50;;;;;;;8.85;5.68;;;;;;;7.46;80.40;100980.59;340405;29;1025;-84
2022/11/11 01:11:02;;;;;;;9.55;5.38;;;;;;;7.47;80.56;100983.19;339116;29;1209;-83
2022/11/11 01:11:18;;;;;;;8.57;5.68;;;;;;;7.46;81.04;100986.63;339486;29;1667;-83
2022/11/11 01:11:30;;;;;;;7.07;5.50;;;;;;;7.47;81.14;100985.78;339809;29;2058;-83
2022/11/11 01:11:41;;;;;;;7.35;5.53;;;;;;;7.47;80.92;100983.19;339837;29;1575;-83
2022/11/11 01:11:54;;;;;;;8.20;5.53;;;;;;;7.47;80.71;100988.38;340235;29;1586;-83
2022/11/11 01:12:06;;;;;;;8.60;5.63;;;;;;;7.47;80.75;100980.63;341429;28;1227;-83
2022/11/11 01:12:18;;;;;;;9.23;5.78;;;;;;;7.47;80.98;100984.94;341145;29;1217;-84
2022/11/11 01:12:30;;;;;;;9.10;5.85;;;;;;;7.47;80.85;100984.94;341605;29;1077;-83
2022/11/11 01:12:42;;;;;;;8.15;5.88;;;;;;;7.46;81.15;100986.63;341877;29;746;-84
2022/11/11 01:13:10;;;;;;;8.10;5.63;;;;;;;7.46;81.05;100991.81;340509;28;1311;-84
2022/11/11 01:13:26;;;;;;;8.18;5.40;;;;;;;7.47;80.91;100984.94;340282;29;1504;-84
2022/11/11 01:13:38;;;;;;;8.40;5.20;;;;;;;7.45;80.79;100984.94;339131;29;902;-84
2022/11/11 01:13:51;;;;;;;8.98;5.47;;;;;;;7.47;80.80;100988.38;339923;29;1188;-84
2022/11/11 01:14:03;;;;;;;9.77;5.95;;;;;;;7.47;80.14;100995.28;338839;29;1091;-84
2022/11/11 01:14:15;;;;;;;9.75;5.97;;;;;;;7.47;80.52;100990.97;338478;29;1497;-83
2022/11/11 01:14:27;;;;;;;9.20;6.05;;;;;;;7.46;80.55;100989.22;338874;29;744;-84
2022/11/11 01:14:39;;;;;;;8.15;5.53;;;;;;;7.45;80.18;100987.50;337174;29;1443;-84
2022/11/11 01:14:52;;;;;;;8.73;5.30;;;;;;;7.45;80.28;100989.25;337333;29;1169;-83
2022/11/11 01:15:05;;;;;;;9.05;5.28;;;;;;;7.44;80.33;100990.94;336150;29;1596;-84
2022/11/11 01:15:17;;;;;;;8.07;5.53;;;;;;;7.44;80.25;100988.34;337169;29;1694;-84
2022/11/11 01:15:32;;;;;;;8.48;5.53;;;;;;;7.44;80.33;100987.50;337685;29;1000;-84
2022/11/11 01:15:47;;;;;;;8.00;5.40;;;;;;;7.42;79.94;100984.06;336129;29;1052;-83
2022/11/11 01:16:02;;;;;;;9.07;5.45;;;;;;;7.38;80.04;100983.16;337684;29;980;-83
2022/11/11 01:16:23;;;;;;;11.48;5.82;;;;;;;7.39;80.11;100990.09;339818;29;1560;-85
2022/11/11 01:16:35;;;;;;;9.10;5.50;;;;;;;7.38;80.01;100984.06;341388;29;1667;-84
2022/11/11 01:16:47;;;;;;;9.20;5.60;;;;;;;7.36;80.40;100990.06;339535;29;1554;-84
2022/11/11 01:16:59;;;;;;;10.73;6.07;;;;;;;7.33;80.28;100990.06;341096;29;1717;-84
2022/11/11 01:17:11;;;;;;;11.18;6.40;;;;;;;7.33;80.68;100984.91;341284;29;991;-83